Slots 777

Canivete
Data Hora VISIB (KM) Cobertura(OITAVOS) DD Vento(º) Intensidade (NÓS) TEMP DO AR (º) Temp do Ponto de Orvalho(ºC) Pressão (hPa) TEMP MAX (ºC) TEMP MIN (ºC)
16/08/2021 18:00 4/10 6 28.00 20.80 1007.40
16/08/2021 12:00 4/10 5 29.00 22.10 1010.00
16/08/2021 00:00 0,05 28.00 24.00 1009.40
15/08/2021 18:00 4/10 4 29.00 23.60 1013.10
15/08/2021 06:00 4/10 200 8 24.00 21.20 1014.20
15/08/2021 00:00 0/0,05 27.00 24.30 1010.40
14/08/2021 12:00 4/10 8 25.00 22.20 1011.90
14/08/2021 00:00 0,2/0,5 25.00 23.60 1010.90
13/08/2021 18:00 2/4 7 27.00 24.30 1007.50
13/08/2021 12:00 4/10 7 27.00 21.40 1010.40
13/08/2021 00:00 0,2/0,5 26.00 23.30 1010.60
12/08/2021 18:00 4/10 8 27.00 24.30 1008.50
12/08/2021 12:00 4/10 6 27.00 24.30 1010.40
12/08/2021 00:00 0/0,05 27.00 22.90 1011.50
11/08/2021 12:00 2/4 8 28.00 22.50 1007.40
11/08/2021 00:00 4/10 2 27.00 22.90 1013.40
10/08/2021 18:00 4/10 7 31.00 23.20 1007.90
10/08/2021 12:00 2/4 7 28.00 25.30 1011.40
10/08/2021 00:00 0,1 26.00 23.30 1009.00
09/08/2021 18:00 4/10 6 32.00 22.50 1003.70
09/08/2021 12:00 4/10 4 23.00 23.20 1009.90
09/08/2021 00:00 0,2/0,5 26.00 23.30 1010.60
08/08/2021 18:00 4/10 5 32.00 24.00 1007.70
08/08/2021 12:00 4/10 7 29.00 23.60 1009.10
08/08/2021 00:00 0,2/0,5 27.00 24.30 1011.50
07/08/2021 18:00 4/10 6 32.00 24.00 1008.60
07/08/2021 12:00 4/10 1 27.50 24.00 1012.30
07/08/2021 00:00 0,05 26.00 22.50 1010.30
06/08/2021 18:00 4/10 8 31.00 22.80 1008.70
06/08/2021 12:00 4/10 4 27.00 24.30 1010.40
06/08/2021 00:00 0/0,05 26.00 24.70 1011.70
05/08/2021 18:00 4/10 6 32.00 22.50 1009.60
05/08/2021 12:00 2/4 8 25.00 23.60 1013.80
05/08/2021 00:00 0,2 25.00 23.60 1010.90
04/08/2021 12:00 4/10 27.00 22.90 1012.50
04/08/2021 00:00 0,2/0,5 25.00 23.60 1011.90
03/08/2021 18:00 2/4 8 27.00 22.90 1009.40
03/08/2021 00:00 0,2/0,5 26.00 23.30 1008.60
02/08/2021 18:00 1/2 7 28.00 22.50 1010.30
02/08/2021 12:00 2/4 7 27.00 22.90 1015.50
02/08/2021 00:00 0/0,05 26.00 23.60 1012.90
01/08/2021 18:00 4/10 5 26.00 23.30 1011.70
01/08/2021 12:00 2/4 3 27.00 22.90 1015.50
01/08/2021 00:00 0,2/0,5 27.00 22.90 1011.50
31/07/2021 18:00 4/10 4 30.00 23.20 1008.90
31/07/2021 12:00 4/10 2 27.50 24.00 1014.30
31/07/2021 00:00 0/0,05 26.00 24.70 1011.70
30/07/2021 18:00 4/10 2 30.00 23.20 1009.90
30/07/2021 12:00 2/4 6 27.00 22.90 1013.40
30/07/2021 00:00 0,2/0,5 2 25.00 23.60 1010.90
29/07/2021 18:00 2/4 4 29.00 23.60 1011.30
29/07/2021 12:00 4/10 2 28.00 24.00 1011.40
29/07/2021 12:00 4/10 2 28.00 24.00 1011.40
29/07/2021 00:00 0,2/0,5 8 24.00 22.60 1012.10
28/07/2021 18:00 2/4 4 28.00 24.00 1010.30
28/07/2021 12:00 0,2/0,5 8 24.00 22.60 1012.10
28/07/2021 00:00 2/4 2 25.00 23.60 1010.90
27/07/2021 18:00 2/4 5 29.00 22.10 1010.00
27/07/2021 12:00 1/2 8 25.00 23.60 1013.80
27/07/2021 00:00 2/4 2 27.00 23.30 1011.50
26/07/2021 12:00 2/4 5 29.00 22.10 1009.10
26/07/2021 00:00 2/4 2 26.00 23.30 1011.70
25/07/2021 18:00 2/4 5 29.00 23.60 1011.70
25/07/2021 12:00 4/10 4 27.00 23.30 1012.50
25/07/2021 00:00 2/4 3 26.00 23.30 1010.60
24/07/2021 18:00 4/10 4 30.00 23.20 1008.90
24/07/2021 12:00 4/10 2 27.00 23.30 1013.40
24/07/2021 00:00 2/4 3 27.00 22.90 1010.40
23/07/2021 18:00 4/10 4 30.00 23.20 1011.90
23/07/2021 12:00 4/10 4 27.00 23.30 1014.40
23/07/2021 00:00 2/4 6 25.00 22.20 1013.80
22/07/2021 00:00 2/4 1 27.00 24.30 1015.50
21/07/2021 18:00 4/10 5 30.00 24.70 1011.90
21/07/2021 00:00 2/4 6 26.00 23.30 1012.60
20/07/2021 18:00 1/2 8 27.00 24.30 1011.50
20/07/2021 12:00 4/10 4 27.00 24.30 1013.40
20/07/2021 00:00 2/4 3 25.00 23.60 1009.80
19/07/2021 18:00 4/10 6 29.50 24.70 1009.90
19/07/2021 00:00 2/4 6 26.00 23.30 1012.60
18/07/2021 00:00 0,5/1 7 26.00 23.30 1011.70
17/07/2021 12:00 0,5/1 7 26.00 23.30 1012.60
17/07/2021 00:00 0,5/1 7 26.00 23.30 1011.70
16/07/2021 18:00 1/2 8 25.00 22.20 1011.90
16/07/2021 12:00 0,05/0,2 5 24.00 22.60 1013.90
16/07/2021 00:00 0,5/1 7 25.00 22.20 1012.90
15/07/2021 18:00 4/10 8 29.00 26.00 1011.30
15/07/2021 12:00 4/10 5 27.00 22.90 1013.40
15/07/2021 00:00 0,5/1 4 26.00 23.30 1011.70
14/07/2021 18:00 4/10 7 28.00 25.30 1010.30
14/07/2021 12:00 0,5/1 8 26.00 23.30 1013.50
14/07/2021 00:00 0,5/1 3 26.00 24.70 1011.70
12/07/2021 00:00 0,5/1 4 26.00 23.30 1012.60
11/07/2021 18:00 4/10 7 28.00 24.00 1010.30
11/07/2021 12:00 2/4 8 25.00 23.60 1012.90
11/07/2021 00:00 0,5/1 25.00 23.60 1012.90
10/07/2021 18:00 4/10 7 28.00 24.00 1009.20
10/07/2021 12:00 2/4 8 24.50 22.20
10/07/2021 00:00 0,5/1 4 25.00 20.80 1010.90
09/07/2021 18:00 4/10 7 28.00 24.00 1010.30
09/07/2021 00:00 0,2/0,5 4 25.00 21.20 1011.70
Slots 777 Mapa do site